sensor_id;sensor_type;location;lat;lon;timestamp;P1;durP1;ratioP1;P2;durP2;ratioP2
63965;SDS011;50151;52.030;5.350;2023-02-16T07:11:24;56.40;;;29.98;;
63965;SDS011;50151;52.030;5.350;2023-02-16T07:13:51;56.45;;;31.17;;
63965;SDS011;50151;52.030;5.350;2023-02-16T07:16:17;57.25;;;32.28;;
63965;SDS011;50151;52.030;5.350;2023-02-16T07:18:44;59.40;;;33.28;;
63965;SDS011;50151;52.030;5.350;2023-02-16T07:21:12;55.80;;;32.60;;
63965;SDS011;50151;52.030;5.350;2023-02-16T07:23:39;60.47;;;32.38;;
63965;SDS011;50151;52.030;5.350;2023-02-16T07:26:07;58.00;;;32.80;;
63965;SDS011;50151;52.030;5.350;2023-02-16T07:28:34;62.35;;;33.55;;
63965;SDS011;50151;52.030;5.350;2023-02-16T07:31:05;59.25;;;32.38;;
63965;SDS011;50151;52.030;5.350;2023-02-16T07:33:36;59.00;;;32.13;;
63965;SDS011;50151;52.030;5.350;2023-02-16T07:36:04;64.30;;;33.03;;
63965;SDS011;50151;52.030;5.350;2023-02-16T07:38:32;58.45;;;33.30;;
63965;SDS011;50151;52.030;5.350;2023-02-16T07:40:58;59.22;;;33.15;;
63965;SDS011;50151;52.030;5.350;2023-02-16T07:43:25;63.20;;;34.13;;
63965;SDS011;50151;52.030;5.350;2023-02-16T07:45:52;67.10;;;33.15;;
63965;SDS011;50151;52.030;5.350;2023-02-16T07:48:19;55.67;;;30.58;;
63965;SDS011;50151;52.030;5.350;2023-02-16T07:50:45;59.78;;;33.90;;
63965;SDS011;50151;52.030;5.350;2023-02-16T07:53:12;57.35;;;31.52;;
63965;SDS011;50151;52.030;5.350;2023-02-16T07:55:39;57.10;;;32.63;;
63965;SDS011;50151;52.030;5.350;2023-02-16T07:58:07;62.63;;;33.88;;
63965;SDS011;50151;52.030;5.350;2023-02-16T08:00:34;58.45;;;31.90;;
63965;SDS011;50151;52.030;5.350;2023-02-16T08:03:01;65.53;;;34.15;;
63965;SDS011;50151;52.030;5.350;2023-02-16T08:05:29;58.40;;;31.90;;
63965;SDS011;50151;52.030;5.350;2023-02-16T08:07:55;63.47;;;33.25;;
63965;SDS011;50151;52.030;5.350;2023-02-16T08:10:22;56.60;;;32.22;;
63965;SDS011;50151;52.030;5.350;2023-02-16T08:12:49;56.65;;;32.47;;
63965;SDS011;50151;52.030;5.350;2023-02-16T08:15:15;57.70;;;31.08;;
63965;SDS011;50151;52.030;5.350;2023-02-16T08:17:43;65.13;;;33.60;;
63965;SDS011;50151;52.030;5.350;2023-02-16T08:20:10;59.15;;;32.17;;
63965;SDS011;50151;52.030;5.350;2023-02-16T08:22:37;57.03;;;31.80;;
63965;SDS011;50151;52.030;5.350;2023-02-16T08:25:03;56.35;;;31.52;;
63965;SDS011;50151;52.030;5.350;2023-02-16T08:27:32;62.90;;;32.22;;
63965;SDS011;50151;52.030;5.350;2023-02-16T08:29:59;61.65;;;33.38;;
63965;SDS011;50151;52.030;5.350;2023-02-16T08:32:26;59.45;;;32.63;;
63965;SDS011;50151;52.030;5.350;2023-02-16T08:34:53;54.88;;;30.67;;
63965;SDS011;50151;52.030;5.350;2023-02-16T08:37:19;58.17;;;31.92;;
63965;SDS011;50151;52.030;5.350;2023-02-16T08:39:47;54.25;;;30.33;;
63965;SDS011;50151;52.030;5.350;2023-02-16T08:42:14;55.20;;;30.90;;
63965;SDS011;50151;52.030;5.350;2023-02-16T08:44:41;61.97;;;31.20;;
63965;SDS011;50151;52.030;5.350;2023-02-16T08:47:08;54.65;;;29.38;;
63965;SDS011;50151;52.030;5.350;2023-02-16T08:49:36;55.72;;;30.98;;
63965;SDS011;50151;52.030;5.350;2023-02-16T08:52:04;56.80;;;31.33;;
63965;SDS011;50151;52.030;5.350;2023-02-16T08:54:31;46.28;;;25.42;;
63965;SDS011;50151;52.030;5.350;2023-02-16T08:56:58;49.65;;;29.40;;
63965;SDS011;50151;52.030;5.350;2023-02-16T08:59:27;50.58;;;29.38;;
63965;SDS011;50151;52.030;5.350;2023-02-16T09:01:58;53.95;;;30.77;;
63965;SDS011;50151;52.030;5.350;2023-02-16T09:04:26;53.85;;;30.63;;
63965;SDS011;50151;52.030;5.350;2023-02-16T09:06:54;53.20;;;31.08;;
63965;SDS011;50151;52.030;5.350;2023-02-16T09:09:23;52.53;;;31.38;;
63965;SDS011;50151;52.030;5.350;2023-02-16T09:11:51;55.88;;;29.38;;
63965;SDS011;50151;52.030;5.350;2023-02-16T09:14:18;60.33;;;32.35;;
63965;SDS011;50151;52.030;5.350;2023-02-16T09:16:46;51.60;;;31.05;;
63965;SDS011;50151;52.030;5.350;2023-02-16T09:19:14;48.22;;;26.48;;
63965;SDS011;50151;52.030;5.350;2023-02-16T09:21:44;57.92;;;30.65;;
63965;SDS011;50151;52.030;5.350;2023-02-16T09:24:12;46.40;;;26.02;;
63965;SDS011;50151;52.030;5.350;2023-02-16T09:26:39;53.70;;;28.63;;
63965;SDS011;50151;52.030;5.350;2023-02-16T09:29:08;52.63;;;30.58;;
63965;SDS011;50151;52.030;5.350;2023-02-16T09:31:37;58.88;;;30.98;;
63965;SDS011;50151;52.030;5.350;2023-02-16T09:34:13;55.45;;;31.60;;
63965;SDS011;50151;52.030;5.350;2023-02-16T09:36:46;54.42;;;30.60;;
63965;SDS011;50151;52.030;5.350;2023-02-16T09:39:13;45.95;;;26.70;;
63965;SDS011;50151;52.030;5.350;2023-02-16T09:41:49;58.17;;;31.15;;
63965;SDS011;50151;52.030;5.350;2023-02-16T09:45:20;55.75;;;30.73;;
63965;SDS011;50151;52.030;5.350;2023-02-16T09:47:42;60.08;;;32.22;;
63965;SDS011;50151;52.030;5.350;2023-02-16T09:50:13;53.35;;;29.83;;
63965;SDS011;50151;52.030;5.350;2023-02-16T09:52:43;57.05;;;31.00;;
63965;SDS011;50151;52.030;5.350;2023-02-16T09:55:13;55.22;;;31.30;;
63965;SDS011;50151;52.030;5.350;2023-02-16T09:58:02;53.80;;;29.92;;
63965;SDS011;50151;52.030;5.350;2023-02-16T10:11:25;52.47;;;30.77;;
63965;SDS011;50151;52.030;5.350;2023-02-16T10:14:05;49.03;;;28.45;;
63965;SDS011;50151;52.030;5.350;2023-02-16T10:16:39;54.50;;;31.00;;
63965;SDS011;50151;52.030;5.350;2023-02-16T10:19:15;48.80;;;28.42;;
63965;SDS011;50151;52.030;5.350;2023-02-16T10:21:48;53.20;;;30.92;;
63965;SDS011;50151;52.030;5.350;2023-02-16T10:24:19;55.95;;;31.85;;
63965;SDS011;50151;52.030;5.350;2023-02-16T10:27:01;52.15;;;29.50;;
63965;SDS011;50151;52.030;5.350;2023-02-16T10:29:33;55.03;;;31.15;;
63965;SDS011;50151;52.030;5.350;2023-02-16T10:37:45;52.78;;;29.85;;
63965;SDS011;50151;52.030;5.350;2023-02-16T10:43:35;53.85;;;29.67;;
63965;SDS011;50151;52.030;5.350;2023-02-16T10:46:38;51.13;;;29.08;;
63965;SDS011;50151;52.030;5.350;2023-02-16T10:49:09;52.83;;;30.88;;
63965;SDS011;50151;52.030;5.350;2023-02-16T10:51:38;54.15;;;31.17;;
63965;SDS011;50151;52.030;5.350;2023-02-16T10:54:12;50.45;;;29.23;;
63965;SDS011;50151;52.030;5.350;2023-02-16T11:01:56;51.00;;;28.98;;
63965;SDS011;50151;52.030;5.350;2023-02-16T11:04:58;51.88;;;28.63;;
63965;SDS011;50151;52.030;5.350;2023-02-16T11:07:22;54.88;;;30.70;;
63965;SDS011;50151;52.030;5.350;2023-02-16T11:09:53;56.40;;;29.97;;
63965;SDS011;50151;52.030;5.350;2023-02-16T11:12:31;54.60;;;31.25;;
63965;SDS011;50151;52.030;5.350;2023-02-16T11:15:19;52.50;;;31.08;;
63965;SDS011;50151;52.030;5.350;2023-02-16T11:17:52;49.85;;;30.10;;
63965;SDS011;50151;52.030;5.350;2023-02-16T11:23:34;55.53;;;31.30;;
63965;SDS011;50151;52.030;5.350;2023-02-16T11:25:58;51.17;;;31.17;;
63965;SDS011;50151;52.030;5.350;2023-02-16T11:28:44;55.45;;;31.83;;
63965;SDS011;50151;52.030;5.350;2023-02-16T11:31:31;55.47;;;31.95;;
63965;SDS011;50151;52.030;5.350;2023-02-16T11:34:03;56.28;;;30.70;;
63965;SDS011;50151;52.030;5.350;2023-02-16T11:36:47;55.67;;;31.63;;
63965;SDS011;50151;52.030;5.350;2023-02-16T11:39:23;52.85;;;31.23;;
63965;SDS011;50151;52.030;5.350;2023-02-16T11:42:01;51.15;;;32.00;;
63965;SDS011;50151;52.030;5.350;2023-02-16T11:44:35;51.80;;;31.92;;
63965;SDS011;50151;52.030;5.350;2023-02-16T11:49:51;49.10;;;30.58;;
63965;SDS011;50151;52.030;5.350;2023-02-16T11:52:47;54.30;;;30.85;;
63965;SDS011;50151;52.030;5.350;2023-02-16T11:55:20;53.83;;;31.70;;
63965;SDS011;50151;52.030;5.350;2023-02-16T11:58:18;50.13;;;29.95;;
63965;SDS011;50151;52.030;5.350;2023-02-16T12:03:55;51.47;;;30.52;;
63965;SDS011;50151;52.030;5.350;2023-02-16T12:06:56;51.83;;;30.13;;
63965;SDS011;50151;52.030;5.350;2023-02-16T12:10:09;49.80;;;31.05;;
63965;SDS011;50151;52.030;5.350;2023-02-16T12:12:50;54.92;;;30.67;;
63965;SDS011;50151;52.030;5.350;2023-02-16T12:15:37;51.58;;;30.55;;
63965;SDS011;50151;52.030;5.350;2023-02-16T12:21:10;46.97;;;26.02;;
63965;SDS011;50151;52.030;5.350;2023-02-16T12:23:53;56.17;;;32.17;;
63965;SDS011;50151;52.030;5.350;2023-02-16T12:31:59;47.05;;;28.20;;
63965;SDS011;50151;52.030;5.350;2023-02-16T12:43:42;48.42;;;28.95;;
63965;SDS011;50151;52.030;5.350;2023-02-16T12:46:13;41.78;;;24.85;;
63965;SDS011;50151;52.030;5.350;2023-02-16T12:51:36;44.97;;;24.48;;
63965;SDS011;50151;52.030;5.350;2023-02-16T12:57:07;48.92;;;28.15;;
63965;SDS011;50151;52.030;5.350;2023-02-16T12:59:57;49.67;;;29.20;;
63965;SDS011;50151;52.030;5.350;2023-02-16T13:02:39;45.67;;;29.50;;
63965;SDS011;50151;52.030;5.350;2023-02-16T13:05:10;46.75;;;28.75;;
63965;SDS011;50151;52.030;5.350;2023-02-16T13:07:46;45.28;;;27.25;;
63965;SDS011;50151;52.030;5.350;2023-02-16T13:10:22;44.15;;;26.42;;
63965;SDS011;50151;52.030;5.350;2023-02-16T13:12:57;43.55;;;23.85;;
63965;SDS011;50151;52.030;5.350;2023-02-16T13:15:33;42.88;;;27.40;;
63965;SDS011;50151;52.030;5.350;2023-02-16T13:21:08;43.67;;;26.77;;
63965;SDS011;50151;52.030;5.350;2023-02-16T13:23:48;41.17;;;26.42;;
63965;SDS011;50151;52.030;5.350;2023-02-16T13:32:07;40.28;;;23.10;;
63965;SDS011;50151;52.030;5.350;2023-02-16T13:37:33;35.10;;;20.15;;
63965;SDS011;50151;52.030;5.350;2023-02-16T13:43:40;38.92;;;21.67;;
63965;SDS011;50151;52.030;5.350;2023-02-16T13:46:14;34.85;;;22.77;;
63965;SDS011;50151;52.030;5.350;2023-02-16T13:48:51;36.35;;;23.13;;
63965;SDS011;50151;52.030;5.350;2023-02-16T13:51:22;38.55;;;22.25;;
63965;SDS011;50151;52.030;5.350;2023-02-16T13:56:30;36.78;;;21.45;;
63965;SDS011;50151;52.030;5.350;2023-02-16T14:01:45;35.60;;;21.27;;
63965;SDS011;50151;52.030;5.350;2023-02-16T14:06:50;35.72;;;22.33;;
63965;SDS011;50151;52.030;5.350;2023-02-16T14:09:48;35.15;;;20.55;;
63965;SDS011;50151;52.030;5.350;2023-02-16T14:12:17;33.92;;;21.25;;
63965;SDS011;50151;52.030;5.350;2023-02-16T14:22:20;36.08;;;21.55;;
63965;SDS011;50151;52.030;5.350;2023-02-16T14:25:05;30.63;;;18.55;;
63965;SDS011;50151;52.030;5.350;2023-02-16T14:27:46;36.80;;;18.48;;
63965;SDS011;50151;52.030;5.350;2023-02-16T14:32:48;31.70;;;19.73;;
63965;SDS011;50151;52.030;5.350;2023-02-16T14:35:39;32.10;;;18.60;;
63965;SDS011;50151;52.030;5.350;2023-02-16T14:38:21;31.90;;;18.85;;
63965;SDS011;50151;52.030;5.350;2023-02-16T14:40:59;30.20;;;17.17;;
63965;SDS011;50151;52.030;5.350;2023-02-16T14:43:34;30.02;;;18.75;;
63965;SDS011;50151;52.030;5.350;2023-02-16T14:57:48;26.42;;;17.52;;
63965;SDS011;50151;52.030;5.350;2023-02-16T15:02:40;25.35;;;14.70;;
63965;SDS011;50151;52.030;5.350;2023-02-16T15:05:20;21.25;;;12.43;;
63965;SDS011;50151;52.030;5.350;2023-02-16T15:08:04;16.52;;;11.38;;
63965;SDS011;50151;52.030;5.350;2023-02-16T15:10:38;13.65;;;9.23;;
63965;SDS011;50151;52.030;5.350;2023-02-16T15:13:05;20.88;;;13.02;;
63965;SDS011;50151;52.030;5.350;2023-02-16T15:18:17;22.17;;;13.65;;
63965;SDS011;50151;52.030;5.350;2023-02-16T15:20:48;17.80;;;12.30;;
63965;SDS011;50151;52.030;5.350;2023-02-16T15:23:19;18.85;;;12.73;;
63965;SDS011;50151;52.030;5.350;2023-02-16T15:25:53;22.55;;;13.05;;
63965;SDS011;50151;52.030;5.350;2023-02-16T15:28:32;20.05;;;12.55;;
63965;SDS011;50151;52.030;5.350;2023-02-16T15:31:04;27.17;;;15.00;;
63965;SDS011;50151;52.030;5.350;2023-02-16T15:36:51;26.55;;;14.50;;
63965;SDS011;50151;52.030;5.350;2023-02-16T15:42:19;21.48;;;14.13;;
63965;SDS011;50151;52.030;5.350;2023-02-16T15:44:47;23.45;;;13.38;;
63965;SDS011;50151;52.030;5.350;2023-02-16T15:47:21;22.48;;;13.98;;
63965;SDS011;50151;52.030;5.350;2023-02-16T15:49:50;26.80;;;15.70;;
63965;SDS011;50151;52.030;5.350;2023-02-16T15:54:58;20.17;;;12.00;;
63965;SDS011;50151;52.030;5.350;2023-02-16T15:57:38;25.92;;;15.20;;
63965;SDS011;50151;52.030;5.350;2023-02-16T16:00:16;17.95;;;11.02;;
63965;SDS011;50151;52.030;5.350;2023-02-16T16:02:48;20.88;;;13.77;;
63965;SDS011;50151;52.030;5.350;2023-02-16T16:05:28;24.92;;;13.60;;
63965;SDS011;50151;52.030;5.350;2023-02-16T16:07:58;25.92;;;15.10;;
63965;SDS011;50151;52.030;5.350;2023-02-16T16:10:34;22.95;;;14.68;;
63965;SDS011;50151;52.030;5.350;2023-02-16T16:13:05;24.42;;;15.90;;
63965;SDS011;50151;52.030;5.350;2023-02-16T16:15:54;22.73;;;15.10;;
63965;SDS011;50151;52.030;5.350;2023-02-16T16:18:37;16.73;;;11.18;;
63965;SDS011;50151;52.030;5.350;2023-02-16T16:21:13;21.58;;;13.25;;
63965;SDS011;50151;52.030;5.350;2023-02-16T16:23:52;18.05;;;11.73;;
63965;SDS011;50151;52.030;5.350;2023-02-16T16:26:21;23.70;;;15.23;;
63965;SDS011;50151;52.030;5.350;2023-02-16T16:28:49;23.45;;;14.45;;
63965;SDS011;50151;52.030;5.350;2023-02-16T16:39:19;20.00;;;13.25;;
63965;SDS011;50151;52.030;5.350;2023-02-16T16:44:52;27.85;;;15.80;;
63965;SDS011;50151;52.030;5.350;2023-02-16T16:47:26;22.45;;;15.82;;
63965;SDS011;50151;52.030;5.350;2023-02-16T16:52:44;24.73;;;15.70;;
63965;SDS011;50151;52.030;5.350;2023-02-16T16:57:44;26.70;;;15.60;;
63965;SDS011;50151;52.030;5.350;2023-02-16T17:00:11;31.73;;;16.88;;
63965;SDS011;50151;52.030;5.350;2023-02-16T17:02:39;27.60;;;15.88;;
63965;SDS011;50151;52.030;5.350;2023-02-16T17:05:06;23.42;;;15.35;;
63965;SDS011;50151;52.030;5.350;2023-02-16T17:07:33;26.73;;;15.60;;
63965;SDS011;50151;52.030;5.350;2023-02-16T17:10:00;20.35;;;13.73;;
63965;SDS011;50151;52.030;5.350;2023-02-16T17:12:27;24.92;;;17.45;;
63965;SDS011;50151;52.030;5.350;2023-02-16T17:14:54;25.00;;;16.65;;
63965;SDS011;50151;52.030;5.350;2023-02-16T17:17:21;21.35;;;14.77;;
63965;SDS011;50151;52.030;5.350;2023-02-16T17:19:48;28.40;;;17.92;;
63965;SDS011;50151;52.030;5.350;2023-02-16T17:22:16;33.08;;;19.00;;
63965;SDS011;50151;52.030;5.350;2023-02-16T17:24:44;28.38;;;17.42;;
63965;SDS011;50151;52.030;5.350;2023-02-16T17:27:12;22.67;;;14.35;;
63965;SDS011;50151;52.030;5.350;2023-02-16T17:29:39;27.83;;;17.63;;
63965;SDS011;50151;52.030;5.350;2023-02-16T17:32:08;27.92;;;17.13;;
63965;SDS011;50151;52.030;5.350;2023-02-16T17:34:35;30.83;;;19.05;;
63965;SDS011;50151;52.030;5.350;2023-02-16T17:37:02;16.73;;;11.32;;
63965;SDS011;50151;52.030;5.350;2023-02-16T17:39:32;27.17;;;19.02;;
63965;SDS011;50151;52.030;5.350;2023-02-16T17:42:00;28.77;;;20.05;;
63965;SDS011;50151;52.030;5.350;2023-02-16T17:44:26;33.08;;;17.77;;
63965;SDS011;50151;52.030;5.350;2023-02-16T17:46:53;24.65;;;15.50;;
63965;SDS011;50151;52.030;5.350;2023-02-16T17:49:20;26.23;;;16.63;;
63965;SDS011;50151;52.030;5.350;2023-02-16T17:51:47;28.27;;;17.00;;
63965;SDS011;50151;52.030;5.350;2023-02-16T17:54:14;36.13;;;16.63;;
63965;SDS011;50151;52.030;5.350;2023-02-16T17:56:41;14.13;;;8.30;;
63965;SDS011;50151;52.030;5.350;2023-02-16T17:59:10;28.10;;;17.70;;
63965;SDS011;50151;52.030;5.350;2023-02-16T18:01:43;25.90;;;18.60;;
63965;SDS011;50151;52.030;5.350;2023-02-16T18:04:10;27.33;;;17.52;;
63965;SDS011;50151;52.030;5.350;2023-02-16T18:06:37;30.33;;;18.80;;
63965;SDS011;50151;52.030;5.350;2023-02-16T18:09:04;21.10;;;12.95;;
63965;SDS011;50151;52.030;5.350;2023-02-16T18:11:30;31.45;;;18.60;;
63965;SDS011;50151;52.030;5.350;2023-02-16T18:13:57;26.35;;;18.63;;
63965;SDS011;50151;52.030;5.350;2023-02-16T18:16:25;25.33;;;14.50;;
63965;SDS011;50151;52.030;5.350;2023-02-16T18:18:52;27.05;;;16.60;;
63965;SDS011;50151;52.030;5.350;2023-02-16T18:21:22;31.58;;;18.95;;
63965;SDS011;50151;52.030;5.350;2023-02-16T18:23:49;31.23;;;20.02;;
63965;SDS011;50151;52.030;5.350;2023-02-16T18:26:16;31.05;;;19.08;;
63965;SDS011;50151;52.030;5.350;2023-02-16T18:28:43;28.58;;;17.70;;
63965;SDS011;50151;52.030;5.350;2023-02-16T18:31:10;31.20;;;19.60;;
63965;SDS011;50151;52.030;5.350;2023-02-16T18:33:38;30.15;;;19.40;;
63965;SDS011;50151;52.030;5.350;2023-02-16T18:36:05;30.15;;;18.98;;
63965;SDS011;50151;52.030;5.350;2023-02-16T18:38:32;18.40;;;11.38;;
63965;SDS011;50151;52.030;5.350;2023-02-16T18:40:59;30.52;;;18.73;;
63965;SDS011;50151;52.030;5.350;2023-02-16T18:43:26;30.25;;;19.55;;
63965;SDS011;50151;52.030;5.350;2023-02-16T18:45:53;25.55;;;17.40;;
63965;SDS011;50151;52.030;5.350;2023-02-16T18:48:19;32.17;;;17.92;;
63965;SDS011;50151;52.030;5.350;2023-02-16T18:50:47;27.90;;;16.55;;
63965;SDS011;50151;52.030;5.350;2023-02-16T18:53:14;24.83;;;15.63;;
63965;SDS011;50151;52.030;5.350;2023-02-16T18:55:40;26.10;;;17.52;;
63965;SDS011;50151;52.030;5.350;2023-02-16T18:58:09;22.60;;;15.77;;
63965;SDS011;50151;52.030;5.350;2023-02-16T19:00:39;28.42;;;18.40;;
63965;SDS011;50151;52.030;5.350;2023-02-16T19:03:05;38.38;;;18.60;;
63965;SDS011;50151;52.030;5.350;2023-02-16T19:05:32;23.75;;;14.57;;
63965;SDS011;50151;52.030;5.350;2023-02-16T19:07:59;19.88;;;13.25;;
63965;SDS011;50151;52.030;5.350;2023-02-16T19:10:26;25.55;;;15.35;;
63965;SDS011;50151;52.030;5.350;2023-02-16T19:12:52;27.85;;;18.67;;
63965;SDS011;50151;52.030;5.350;2023-02-16T19:15:19;25.67;;;16.30;;
63965;SDS011;50151;52.030;5.350;2023-02-16T19:17:46;23.65;;;13.93;;
63965;SDS011;50151;52.030;5.350;2023-02-16T19:20:13;24.50;;;15.75;;
63965;SDS011;50151;52.030;5.350;2023-02-16T19:22:46;29.30;;;18.63;;
63965;SDS011;50151;52.030;5.350;2023-02-16T19:25:14;22.77;;;15.77;;
63965;SDS011;50151;52.030;5.350;2023-02-16T19:27:44;28.38;;;17.30;;
63965;SDS011;50151;52.030;5.350;2023-02-16T19:30:11;32.05;;;20.42;;
63965;SDS011;50151;52.030;5.350;2023-02-16T19:32:38;30.50;;;21.13;;
63965;SDS011;50151;52.030;5.350;2023-02-16T19:35:10;31.67;;;17.88;;
63965;SDS011;50151;52.030;5.350;2023-02-16T19:37:37;27.92;;;20.30;;
63965;SDS011;50151;52.030;5.350;2023-02-16T19:40:04;29.45;;;20.10;;
63965;SDS011;50151;52.030;5.350;2023-02-16T19:42:33;28.95;;;19.45;;
63965;SDS011;50151;52.030;5.350;2023-02-16T19:45:00;23.52;;;16.95;;
63965;SDS011;50151;52.030;5.350;2023-02-16T19:47:26;19.48;;;13.95;;
63965;SDS011;50151;52.030;5.350;2023-02-16T19:49:53;28.63;;;18.75;;
63965;SDS011;50151;52.030;5.350;2023-02-16T19:52:20;25.42;;;18.92;;
63965;SDS011;50151;52.030;5.350;2023-02-16T19:54:46;27.40;;;19.58;;
63965;SDS011;50151;52.030;5.350;2023-02-16T19:57:14;28.52;;;17.08;;
63965;SDS011;50151;52.030;5.350;2023-02-16T19:59:41;23.70;;;17.33;;
63965;SDS011;50151;52.030;5.350;2023-02-16T20:02:09;25.35;;;18.88;;
63965;SDS011;50151;52.030;5.350;2023-02-16T20:04:36;25.60;;;18.10;;
63965;SDS011;50151;52.030;5.350;2023-02-16T20:07:03;25.10;;;17.45;;
63965;SDS011;50151;52.030;5.350;2023-02-16T20:09:31;21.95;;;16.98;;
63965;SDS011;50151;52.030;5.350;2023-02-16T20:11:57;19.67;;;12.48;;
63965;SDS011;50151;52.030;5.350;2023-02-16T20:14:24;23.60;;;16.55;;
63965;SDS011;50151;52.030;5.350;2023-02-16T20:16:51;20.67;;;14.65;;
63965;SDS011;50151;52.030;5.350;2023-02-16T20:19:18;24.98;;;16.17;;
63965;SDS011;50151;52.030;5.350;2023-02-16T20:21:44;19.08;;;13.77;;
63965;SDS011;50151;52.030;5.350;2023-02-16T20:24:12;23.17;;;15.80;;
63965;SDS011;50151;52.030;5.350;2023-02-16T20:26:41;15.63;;;11.85;;
63965;SDS011;50151;52.030;5.350;2023-02-16T20:29:11;17.42;;;13.30;;
63965;SDS011;50151;52.030;5.350;2023-02-16T20:31:40;15.38;;;11.13;;
63965;SDS011;50151;52.030;5.350;2023-02-16T20:34:09;17.13;;;12.93;;
63965;SDS011;50151;52.030;5.350;2023-02-16T20:36:36;15.80;;;11.15;;
63965;SDS011;50151;52.030;5.350;2023-02-16T20:39:03;12.80;;;9.10;;
63965;SDS011;50151;52.030;5.350;2023-02-16T20:41:31;14.30;;;9.82;;
63965;SDS011;50151;52.030;5.350;2023-02-16T20:43:58;13.05;;;10.48;;
63965;SDS011;50151;52.030;5.350;2023-02-16T20:46:24;12.05;;;8.43;;
63965;SDS011;50151;52.030;5.350;2023-02-16T20:48:51;11.38;;;8.73;;
63965;SDS011;50151;52.030;5.350;2023-02-16T20:51:19;12.85;;;10.10;;
63965;SDS011;50151;52.030;5.350;2023-02-16T20:53:46;14.13;;;9.05;;
63965;SDS011;50151;52.030;5.350;2023-02-16T20:56:15;12.63;;;9.52;;
63965;SDS011;50151;52.030;5.350;2023-02-16T20:58:47;10.20;;;7.63;;
63965;SDS011;50151;52.030;5.350;2023-02-16T21:01:18;8.48;;;7.00;;
63965;SDS011;50151;52.030;5.350;2023-02-16T21:03:48;9.25;;;6.25;;
63965;SDS011;50151;52.030;5.350;2023-02-16T21:06:17;9.98;;;8.00;;
63965;SDS011;50151;52.030;5.350;2023-02-16T21:08:44;7.78;;;5.97;;
63965;SDS011;50151;52.030;5.350;2023-02-16T21:11:10;10.10;;;7.95;;
63965;SDS011;50151;52.030;5.350;2023-02-16T21:13:37;8.80;;;6.10;;
63965;SDS011;50151;52.030;5.350;2023-02-16T21:16:04;9.65;;;7.90;;
63965;SDS011;50151;52.030;5.350;2023-02-16T21:18:32;8.32;;;7.05;;
63965;SDS011;50151;52.030;5.350;2023-02-16T21:21:00;6.82;;;6.13;;
63965;SDS011;50151;52.030;5.350;2023-02-16T21:23:27;6.93;;;5.60;;
63965;SDS011;50151;52.030;5.350;2023-02-16T21:25:57;7.45;;;6.00;;
63965;SDS011;50151;52.030;5.350;2023-02-16T21:28:25;7.85;;;5.53;;
63965;SDS011;50151;52.030;5.350;2023-02-16T21:30:52;7.93;;;7.13;;
63965;SDS011;50151;52.030;5.350;2023-02-16T21:33:19;7.28;;;5.60;;
63965;SDS011;50151;52.030;5.350;2023-02-16T21:35:46;8.55;;;6.57;;
63965;SDS011;50151;52.030;5.350;2023-02-16T21:38:13;6.80;;;6.10;;
63965;SDS011;50151;52.030;5.350;2023-02-16T21:40:40;7.07;;;5.60;;
63965;SDS011;50151;52.030;5.350;2023-02-16T21:43:25;7.82;;;6.95;;
63965;SDS011;50151;52.030;5.350;2023-02-16T21:46:01;5.90;;;5.13;;
63965;SDS011;50151;52.030;5.350;2023-02-16T21:48:28;6.88;;;5.82;;
63965;SDS011;50151;52.030;5.350;2023-02-16T21:51:14;6.80;;;5.60;;
63965;SDS011;50151;52.030;5.350;2023-02-16T21:53:43;8.00;;;6.28;;
63965;SDS011;50151;52.030;5.350;2023-02-16T21:58:58;7.78;;;5.82;;
63965;SDS011;50151;52.030;5.350;2023-02-16T22:01:26;7.63;;;5.47;;
63965;SDS011;50151;52.030;5.350;2023-02-16T22:03:55;6.72;;;5.85;;
63965;SDS011;50151;52.030;5.350;2023-02-16T22:06:34;10.27;;;6.80;;
63965;SDS011;50151;52.030;5.350;2023-02-16T22:09:07;6.57;;;5.55;;
63965;SDS011;50151;52.030;5.350;2023-02-16T22:11:36;8.40;;;5.38;;
63965;SDS011;50151;52.030;5.350;2023-02-16T22:14:03;7.22;;;4.40;;
63965;SDS011;50151;52.030;5.350;2023-02-16T22:16:30;4.78;;;3.92;;
63965;SDS011;50151;52.030;5.350;2023-02-16T22:18:59;8.63;;;5.20;;
63965;SDS011;50151;52.030;5.350;2023-02-16T22:21:29;6.28;;;4.70;;
63965;SDS011;50151;52.030;5.350;2023-02-16T22:23:56;6.45;;;5.20;;
63965;SDS011;50151;52.030;5.350;2023-02-16T22:26:27;6.28;;;5.60;;
